Pagrindinis puslapis
METAR-TAF:

METAR-TAF

Oro uostai :

Friportas, Bahamos

platuma: 26-33N, ilguma: 078-42W, Aukštis: 2 m

Dabartinis oras

Ataskaita buvo paskelbta 30 minutes, ne 14:00 UTC
Vėjas 6 kt iš Šiaurės Rytų
Temperatūra 25°C
Drėgmė 94%
Slėgis 1016 hPa

METAR: MYGF 231400Z AUTO 05006KT //// R06///// // NSC 25/24 A2999

Laikas: 10:30 (14:30 UTC)

Prognozė

Ataskaita buvo paskelbta 4 valandos ir 0 minutes, ne 10:30 UTC
Prognozė galioja nuo 23 metu 12 UTC su 24 metu 12 UTC
Vėjas 4 kt iš Šiaurės/Šiaurės Rytų
Matomumas 10 km arba daugiau
Mažai debesys ne aukštis 1500 ft, Liūtiniai kamuoliniai debesys.
Su prošvaistėmis ne aukštis 3000 ft
Apsiniaukę ne aukštis 7000 ft
Laikinai
nuo 23 metu 13 UTC su 23 metu 19 UTC
Vėjas 15 kt nuo kintamojo kryptimis
Matomumas: 4800 m
Su prošvaistėmis ne aukštis 1500 ft, Liūtiniai kamuoliniai debesys.
perkūnija, lietus

TAF: MYGF 231030Z 2312/2412 03004KT 9999 FEW015CB BKN030 OVC070 TEMPO 2313/2319 VRB15KT 4800 TSRA BKN015CB

Orai ataskaitas ir orų prognozės (METAR, TAF).

turimą stotys yra geltonos ir raudonos taškus žemėlapyje.

Perkelti pele per norėdami pamatyti stoties vardą.

Tada spustelėkite, norėdami matyti oro stebėjimo ir prognozės.

Norėdami pakeisti žemėlapį: spustelėkite ant žalios mygtukų su juodo kryžiaus žemyn,; žalią mygtuką su brūkšneliu, jei norite nutolinti; arba žalių rodyklių gretimoms žemėlapius.


METAR-TAF: